エル・パソ の空港の天気 - METARとTAF

エルパソ国際空港 ( KELP / ELP ) - アメリカ テキサス州エル・パソ
飛行場実況気象(Metar)
観測時間02/05 12:51 MST (02/05 19:51 UTC)
風向・風速南南西 4m/s
視程10km以上
天気現象
なし
気温21.1℃
湿度15%
気圧1016.5hPa
METARKELP 051951Z 20008KT 10SM CLR 21/M07 A3015 RMK AO2 SLP165 T02111067
過去の天気等 Google飛行場航空写真 Wunderground天気予報

過去48時間のMETAR

飛行場予報(TAF)
発表時間: 2/05 10:24 MST (2/05 17:24 UTC)
予報対象時間: 5日11時 MST ~ 6日11時 MST
風向・風速南 3m/s
視程10km以上
少しの雲 雲底高度 7620m
5日13時 MST から
風向・風速南西 4m/s
視程10km以上
なし
6日5時 MST から
風向・風速南西 5m/s
視程10km以上
少しの雲 雲底高度 7620m
KELP 051724Z 0518/0618 19005KT P6SM FEW250
FM052000 22007KT P6SM SKC
FM061200 23009KT P6SM FEW250